BTK7158 WSSS-WIII
Flight info
| Callsign | BTK7158 |
|---|---|
| Flight time | 1h 23m |
| Altitude | 37000 |
| Route | ANITO7A ANITO B470 BUNIK |
| Aircraft | B738/M-SDE2E3FGHIRWXY/LB1 |
Departure
| Time | 2026-05-04 10:04 |
|---|---|
| Airport | Singapore Changi Airport (WSSS) |
Arrival
| Time | 2026-05-04 11:27 |
|---|---|
| Airport | Soekarno-Hatta International Airport (WIII) |
| Time | Latitude | Longitude | Altitude | Speed | Heading |
|---|---|---|---|---|---|
| 2026-05-04 09:47 | 1.35007 | 103.98206 | 30 ft | 0 kts | 155° |
| 2026-05-04 09:56 | 1.35014 | 103.98202 | 30 ft | 2 kts | 155° |
| 2026-05-04 09:56 | 1.35027 | 103.98197 | 30 ft | 2 kts | 155° |
| 2026-05-04 09:56 | 1.35040 | 103.98191 | 30 ft | 2 kts | 155° |
| 2026-05-04 09:57 | 1.35058 | 103.98183 | 30 ft | 2 kts | 155° |
| 2026-05-04 09:57 | 1.35067 | 103.98179 | 30 ft | 2 kts | 155° |
| 2026-05-04 09:57 | 1.35081 | 103.98173 | 30 ft | 2 kts | 155° |
| 2026-05-04 09:57 | 1.35094 | 103.98168 | 30 ft | 2 kts | 187° |
| 2026-05-04 09:58 | 1.35109 | 103.98174 | 30 ft | 2 kts | 224° |
| 2026-05-04 09:58 | 1.35114 | 103.98181 | 30 ft | 0 kts | 246° |
| 2026-05-04 09:58 | 1.35116 | 103.98186 | 30 ft | 0 kts | 243° |
| 2026-05-04 10:00 | 1.35059 | 103.98106 | 30 ft | 9 kts | 203° |
| 2026-05-04 10:00 | 1.35013 | 103.98088 | 30 ft | 11 kts | 200° |
| 2026-05-04 10:02 | 1.34853 | 103.97886 | 30 ft | 1 kts | 296° |
| 2026-05-04 10:04 | 1.35684 | 103.98078 | 30 ft | 111 kts | 22° |
| 2026-05-04 10:04 | 1.36624 | 103.98473 | 32 ft | 178 kts | 24° |
| 2026-05-04 10:04 | 1.37855 | 103.99029 | 381 ft | 209 kts | 25° |
| 2026-05-04 10:04 | 1.39192 | 103.99699 | 809 ft | 223 kts | 28° |
| 2026-05-04 10:05 | 1.41089 | 104.00769 | 1374 ft | 240 kts | 26° |
| 2026-05-04 10:05 | 1.42110 | 104.01210 | 1659 ft | 242 kts | 21° |
| 2026-05-04 10:05 | 1.44201 | 104.02066 | 2230 ft | 245 kts | 22° |
| 2026-05-04 10:05 | 1.45801 | 104.02727 | 2662 ft | 246 kts | 22° |
| 2026-05-04 10:06 | 1.46852 | 104.03155 | 2945 ft | 247 kts | 22° |
| 2026-05-04 10:06 | 1.48452 | 104.03813 | 3373 ft | 249 kts | 22° |
| 2026-05-04 10:06 | 1.50014 | 104.04568 | 3747 ft | 250 kts | 35° |
| 2026-05-04 10:08 | 1.47385 | 104.13919 | 6006 ft | 281 kts | 135° |
| 2026-05-04 10:08 | 1.45992 | 104.15294 | 6382 ft | 284 kts | 135° |
| 2026-05-04 10:08 | 1.44128 | 104.17169 | 6884 ft | 286 kts | 132° |
| 2026-05-04 10:08 | 1.43312 | 104.18216 | 7130 ft | 288 kts | 120° |
| 2026-05-04 10:09 | 1.42150 | 104.20655 | 7646 ft | 293 kts | 113° |
| 2026-05-04 10:09 | 1.41313 | 104.22533 | 8022 ft | 296 kts | 115° |
| 2026-05-04 10:09 | 1.40750 | 104.23768 | 8269 ft | 298 kts | 114° |
| 2026-05-04 10:09 | 1.39573 | 104.26290 | 8772 ft | 301 kts | 115° |
| 2026-05-04 10:10 | 1.38690 | 104.28206 | 9150 ft | 303 kts | 115° |
| 2026-05-04 10:10 | 1.38093 | 104.29501 | 9404 ft | 305 kts | 115° |
| 2026-05-04 10:10 | 1.37193 | 104.31431 | 9780 ft | 306 kts | 116° |
| 2026-05-04 10:10 | 1.36298 | 104.33360 | 10155 ft | 308 kts | 116° |
| 2026-05-04 10:11 | 1.35397 | 104.35300 | 10530 ft | 310 kts | 116° |
| 2026-05-04 10:11 | 1.34182 | 104.37917 | 11031 ft | 312 kts | 117° |
| 2026-05-04 10:11 | 1.33446 | 104.39193 | 11280 ft | 312 kts | 129° |
| 2026-05-04 10:11 | 1.31224 | 104.40948 | 11780 ft | 305 kts | 163° |
| 2026-05-04 10:12 | 1.29173 | 104.41487 | 12176 ft | 306 kts | 170° |
| 2026-05-04 10:12 | 1.27114 | 104.41994 | 12549 ft | 307 kts | 168° |
| 2026-05-04 10:12 | 1.25740 | 104.42353 | 12799 ft | 307 kts | 168° |
| 2026-05-04 10:12 | 1.23608 | 104.42905 | 13185 ft | 322 kts | 168° |
| 2026-05-04 10:13 | 1.21407 | 104.43470 | 13560 ft | 339 kts | 168° |
| 2026-05-04 10:13 | 1.18275 | 104.44279 | 14061 ft | 348 kts | 168° |
| 2026-05-04 10:13 | 1.15938 | 104.44885 | 14435 ft | 349 kts | 168° |
| 2026-05-04 10:13 | 1.13592 | 104.45492 | 14808 ft | 350 kts | 168° |
| 2026-05-04 10:14 | 1.12038 | 104.45893 | 15055 ft | 351 kts | 168° |
| 2026-05-04 10:14 | 1.08867 | 104.46747 | 15559 ft | 352 kts | 167° |
| 2026-05-04 10:16 | 0.92190 | 104.51396 | 18189 ft | 360 kts | 166° |
| 2026-05-04 10:16 | 0.89737 | 104.52078 | 18571 ft | 362 kts | 166° |
| 2026-05-04 10:16 | 0.87674 | 104.52651 | 18891 ft | 363 kts | 166° |
| 2026-05-04 10:16 | 0.85233 | 104.53330 | 19268 ft | 364 kts | 166° |
| 2026-05-04 10:17 | 0.82792 | 104.54009 | 19644 ft | 366 kts | 166° |
| 2026-05-04 10:17 | 0.80324 | 104.54695 | 20022 ft | 367 kts | 166° |
| 2026-05-04 10:19 | 0.62808 | 104.59610 | 22660 ft | 380 kts | 164° |
| 2026-05-04 10:19 | 0.60294 | 104.60364 | 23033 ft | 382 kts | 163° |
| 2026-05-04 10:19 | 0.58594 | 104.60871 | 23285 ft | 383 kts | 163° |
| 2026-05-04 10:19 | 0.55179 | 104.61887 | 23787 ft | 386 kts | 163° |
| 2026-05-04 10:20 | 0.52595 | 104.62656 | 24164 ft | 388 kts | 163° |
| 2026-05-04 10:20 | 0.49969 | 104.63438 | 24546 ft | 390 kts | 163° |
| 2026-05-04 10:20 | 0.47361 | 104.64213 | 24922 ft | 392 kts | 163° |
| 2026-05-04 10:20 | 0.44767 | 104.64982 | 25295 ft | 394 kts | 163° |
| 2026-05-04 10:21 | 0.42122 | 104.65765 | 25674 ft | 398 kts | 163° |
| 2026-05-04 10:21 | 0.39456 | 104.66553 | 26050 ft | 402 kts | 163° |
| 2026-05-04 10:21 | 0.36762 | 104.67350 | 26427 ft | 405 kts | 163° |
| 2026-05-04 10:21 | 0.34052 | 104.68152 | 26804 ft | 408 kts | 163° |
| 2026-05-04 10:22 | 0.29503 | 104.69498 | 27429 ft | 412 kts | 162° |
| 2026-05-04 10:22 | 0.25793 | 104.70595 | 27934 ft | 415 kts | 162° |
| 2026-05-04 10:22 | 0.23948 | 104.71141 | 28185 ft | 416 kts | 162° |
| 2026-05-04 10:23 | 0.20253 | 104.72234 | 28684 ft | 418 kts | 162° |
| 2026-05-04 10:23 | 0.17462 | 104.73060 | 29059 ft | 419 kts | 162° |
| 2026-05-04 10:25 | -0.01245 | 104.78610 | 31562 ft | 422 kts | 161° |
| 2026-05-04 10:25 | -0.04059 | 104.79446 | 31939 ft | 421 kts | 161° |
| 2026-05-04 10:25 | -0.07783 | 104.80552 | 32438 ft | 420 kts | 161° |
| 2026-05-04 10:25 | -0.10565 | 104.81378 | 32812 ft | 419 kts | 161° |
| 2026-05-04 10:26 | -0.13375 | 104.82213 | 33190 ft | 418 kts | 161° |
| 2026-05-04 10:26 | -0.16146 | 104.83036 | 33565 ft | 417 kts | 161° |
| 2026-05-04 10:26 | -0.18937 | 104.83865 | 33943 ft | 415 kts | 161° |
| 2026-05-04 10:26 | -0.21690 | 104.84684 | 34318 ft | 414 kts | 161° |
| 2026-05-04 10:27 | -0.23535 | 104.85232 | 34570 ft | 412 kts | 161° |
| 2026-05-04 10:27 | -0.26225 | 104.86151 | 34944 ft | 409 kts | 156° |
| 2026-05-04 10:27 | -0.29623 | 104.87731 | 35442 ft | 403 kts | 147° |
| 2026-05-04 10:27 | -0.31981 | 104.89226 | 35820 ft | 399 kts | 144° |
| 2026-05-04 10:28 | -0.33489 | 104.90240 | 36067 ft | 397 kts | 144° |
| 2026-05-04 10:28 | -0.36546 | 104.92279 | 36569 ft | 393 kts | 144° |
| 2026-05-04 10:28 | -0.38801 | 104.93783 | 36844 ft | 393 kts | 144° |
| 2026-05-04 10:29 | -0.43418 | 104.96885 | 36865 ft | 406 kts | 144° |
| 2026-05-04 10:29 | -0.48170 | 105.00090 | 36861 ft | 419 kts | 143° |
| 2026-05-04 10:30 | -0.53052 | 105.03387 | 36858 ft | 430 kts | 143° |
| 2026-05-04 10:30 | -0.57229 | 105.06211 | 36858 ft | 439 kts | 143° |
| 2026-05-04 10:31 | -0.63161 | 105.10220 | 36856 ft | 443 kts | 143° |
| 2026-05-04 10:32 | -0.80946 | 105.22248 | 36858 ft | 440 kts | 143° |
| 2026-05-04 10:33 | -0.86034 | 105.25691 | 36858 ft | 440 kts | 143° |
| 2026-05-04 10:33 | -0.90241 | 105.28538 | 36858 ft | 440 kts | 143° |
| 2026-05-04 10:34 | -0.96182 | 105.32558 | 36858 ft | 440 kts | 143° |
| 2026-05-04 10:34 | -1.01233 | 105.35979 | 36858 ft | 441 kts | 144° |
| 2026-05-04 10:35 | -1.06359 | 105.39452 | 36858 ft | 443 kts | 144° |
| 2026-05-04 10:35 | -1.11554 | 105.42973 | 36858 ft | 446 kts | 144° |
| 2026-05-04 10:36 | -1.16833 | 105.46549 | 36858 ft | 447 kts | 144° |
| 2026-05-04 10:36 | -1.22234 | 105.50205 | 36857 ft | 446 kts | 144° |
| 2026-05-04 10:37 | -1.27485 | 105.53760 | 36857 ft | 446 kts | 144° |
| 2026-05-04 10:37 | -1.32738 | 105.57317 | 36858 ft | 446 kts | 144° |
| 2026-05-04 10:39 | -1.50927 | 105.69632 | 36858 ft | 446 kts | 144° |
| 2026-05-04 10:40 | -1.56058 | 105.73107 | 36858 ft | 446 kts | 144° |
| 2026-05-04 10:40 | -1.61220 | 105.76603 | 36858 ft | 446 kts | 144° |
| 2026-05-04 10:41 | -1.66387 | 105.80102 | 36858 ft | 446 kts | 144° |
| 2026-05-04 10:41 | -1.71536 | 105.83589 | 36858 ft | 446 kts | 144° |
| 2026-05-04 10:42 | -1.76687 | 105.87078 | 36858 ft | 446 kts | 144° |
| 2026-05-04 10:42 | -1.81818 | 105.90553 | 36858 ft | 446 kts | 144° |
| 2026-05-04 10:43 | -1.86138 | 105.93480 | 36858 ft | 446 kts | 144° |
| 2026-05-04 10:45 | -2.07395 | 106.07882 | 36858 ft | 446 kts | 144° |
| 2026-05-04 10:45 | -2.12438 | 106.11293 | 36857 ft | 446 kts | 146° |
| 2026-05-04 10:46 | -2.17893 | 106.14101 | 36855 ft | 448 kts | 159° |
| 2026-05-04 10:46 | -2.23963 | 106.15428 | 36862 ft | 450 kts | 169° |
| 2026-05-04 10:47 | -2.30137 | 106.16463 | 36857 ft | 451 kts | 169° |
| 2026-05-04 10:47 | -2.36277 | 106.17518 | 36858 ft | 450 kts | 169° |
| 2026-05-04 10:49 | -2.60811 | 106.21729 | 36858 ft | 450 kts | 168° |
| 2026-05-04 10:50 | -2.66921 | 106.22782 | 36858 ft | 450 kts | 169° |
| 2026-05-04 10:52 | -2.91562 | 106.27008 | 36857 ft | 451 kts | 169° |
| 2026-05-04 10:52 | -2.96721 | 106.27892 | 36858 ft | 452 kts | 169° |
| 2026-05-04 10:54 | -3.22442 | 106.32300 | 36858 ft | 454 kts | 169° |
| 2026-05-04 10:56 | -3.47251 | 106.36551 | 36858 ft | 454 kts | 169° |
| 2026-05-04 10:57 | -3.53433 | 106.37611 | 36858 ft | 454 kts | 169° |
| 2026-05-04 10:57 | -3.58607 | 106.38498 | 36858 ft | 454 kts | 169° |
| 2026-05-04 10:58 | -3.65726 | 106.39746 | 36858 ft | 454 kts | 168° |
| 2026-05-04 10:58 | -3.71917 | 106.40915 | 36858 ft | 454 kts | 168° |
| 2026-05-04 10:59 | -3.78088 | 106.42074 | 36858 ft | 454 kts | 168° |
| 2026-05-04 10:59 | -3.84278 | 106.43236 | 36858 ft | 454 kts | 168° |
| 2026-05-04 11:00 | -3.90432 | 106.44389 | 36864 ft | 454 kts | 168° |
| 2026-05-04 11:02 | -4.14966 | 106.48985 | 36908 ft | 454 kts | 168° |
| 2026-05-04 11:05 | -4.60498 | 106.57516 | 30455 ft | 446 kts | 168° |
| 2026-05-04 11:06 | -4.63567 | 106.58092 | 29862 ft | 449 kts | 168° |
| 2026-05-04 11:06 | -4.66615 | 106.58663 | 29291 ft | 451 kts | 168° |
| 2026-05-04 11:06 | -4.69682 | 106.59238 | 28718 ft | 452 kts | 168° |
| 2026-05-04 11:06 | -4.72748 | 106.59813 | 28134 ft | 444 kts | 168° |
| 2026-05-04 11:08 | -4.91505 | 106.64877 | 24156 ft | 404 kts | 155° |
| 2026-05-04 11:10 | -5.09590 | 106.73041 | 19986 ft | 376 kts | 155° |
| 2026-05-04 11:12 | -5.25786 | 106.80403 | 16378 ft | 358 kts | 155° |
| 2026-05-04 11:12 | -5.28055 | 106.81431 | 15901 ft | 356 kts | 155° |
| 2026-05-04 11:12 | -5.30264 | 106.82431 | 15433 ft | 354 kts | 155° |
| 2026-05-04 11:12 | -5.32531 | 106.83458 | 14950 ft | 352 kts | 155° |
| 2026-05-04 11:13 | -5.34749 | 106.84463 | 14474 ft | 350 kts | 155° |
| 2026-05-04 11:13 | -5.36944 | 106.85458 | 14000 ft | 347 kts | 155° |
| 2026-05-04 11:13 | -5.39146 | 106.86455 | 13521 ft | 344 kts | 155° |
| 2026-05-04 11:13 | -5.41294 | 106.87428 | 13051 ft | 342 kts | 155° |
| 2026-05-04 11:14 | -5.43444 | 106.88403 | 12576 ft | 340 kts | 155° |
| 2026-05-04 11:14 | -5.45595 | 106.89378 | 12098 ft | 337 kts | 156° |
| 2026-05-04 11:14 | -5.47807 | 106.90093 | 11622 ft | 335 kts | 171° |
| 2026-05-04 11:16 | -5.63328 | 106.89931 | 8483 ft | 308 kts | 180° |
| 2026-05-04 11:16 | -5.65475 | 106.89899 | 8077 ft | 304 kts | 180° |
| 2026-05-04 11:16 | -5.67539 | 106.89868 | 7723 ft | 298 kts | 180° |
| 2026-05-04 11:17 | -5.68900 | 106.89848 | 7474 ft | 295 kts | 180° |
| 2026-05-04 11:17 | -5.71601 | 106.89808 | 6973 ft | 290 kts | 180° |
| 2026-05-04 11:19 | -5.84555 | 106.89539 | 4470 ft | 271 kts | 181° |
| 2026-05-04 11:19 | -5.87078 | 106.89487 | 3983 ft | 268 kts | 181° |
| 2026-05-04 11:19 | -5.88302 | 106.89459 | 3878 ft | 261 kts | 181° |
| 2026-05-04 11:19 | -5.90713 | 106.89410 | 3559 ft | 258 kts | 181° |
| 2026-05-04 11:20 | -5.92518 | 106.89368 | 3303 ft | 253 kts | 181° |
| 2026-05-04 11:20 | -5.94265 | 106.89332 | 3050 ft | 247 kts | 181° |
| 2026-05-04 11:20 | -5.95958 | 106.89140 | 2792 ft | 243 kts | 198° |
| 2026-05-04 11:20 | -5.97395 | 106.88253 | 2545 ft | 239 kts | 221° |
| 2026-05-04 11:22 | -6.04765 | 106.81194 | 1994 ft | 187 kts | 249° |
| 2026-05-04 11:22 | -6.05219 | 106.79945 | 1989 ft | 188 kts | 248° |
| 2026-05-04 11:23 | -6.05697 | 106.78715 | 1989 ft | 187 kts | 248° |
| 2026-05-04 11:23 | -6.06176 | 106.77509 | 1989 ft | 188 kts | 247° |
| 2026-05-04 11:24 | -6.08802 | 106.70935 | 822 ft | 150 kts | 247° |
| 2026-05-04 11:25 | -6.09189 | 106.69968 | 728 ft | 149 kts | 247° |
| 2026-05-04 11:25 | -6.09579 | 106.68990 | 493 ft | 151 kts | 247° |
| 2026-05-04 11:25 | -6.09959 | 106.68039 | 296 ft | 146 kts | 247° |
| 2026-05-04 11:26 | -6.10694 | 106.66160 | 44 ft | 125 kts | 244° |
| 2026-05-04 11:27 | -6.11467 | 106.64713 | 43 ft | 0 kts | 167° |
| 2026-05-04 11:28 | -6.11479 | 106.64716 | 43 ft | 4 kts | 161° |
| 2026-05-04 11:28 | -6.11525 | 106.64735 | 43 ft | 9 kts | 158° |
| 2026-05-04 11:28 | -6.11604 | 106.64767 | 43 ft | 14 kts | 158° |
| 2026-05-04 11:28 | -6.11707 | 106.64805 | 43 ft | 15 kts | 168° |
| 2026-05-04 11:29 | -6.11789 | 106.64741 | 43 ft | 16 kts | 226° |
| 2026-05-04 11:29 | -6.11882 | 106.64667 | 43 ft | 15 kts | 213° |
| 2026-05-04 11:29 | -6.11917 | 106.64648 | 43 ft | 5 kts | 198° |
| 2026-05-04 11:29 | -6.11944 | 106.64647 | 43 ft | 1 kts | 160° |
| 2026-05-04 11:31 | -6.11912 | 106.64832 | 43 ft | 10 kts | 68° |
| 2026-05-04 11:33 | -6.12001 | 106.65029 | 43 ft | 8 kts | 151° |
| 2026-05-04 11:33 | -6.12039 | 106.65076 | 43 ft | 5 kts | 110° |
| 2026-05-04 11:33 | -6.12040 | 106.65095 | 43 ft | 1 kts | 91° |
| 2026-05-04 11:34 | -6.12046 | 106.65108 | 43 ft | 0 kts | 146° |